Extreme weather reports worldwide

High winds

Station
 
Location
 
Name
 
Wind
Knots
Gust
Knots
Vis
SM
Temp/Dew
C
Baro
inHg
METAR
 
YYY CYYY Mont-Joli, CA Mont Joli Airport 30 36 14/12 29.58 CYYY 280800Z 16030G36KT 10SM -RA OVC065 14/12 A2958 RMK SC8 SLP020 DENSITY ALT 600FT
CWRU 28 33 8/8 CWRU 280700Z AUTO 11028G33KT 08/08 RMK AO1 2PAST HR 3002 PK WND 11041/0606 SLP162 P0005 T00840082 50012
SBLB Macaé, BR Plataforma P-25 Helipad 28 0.87 28/ 30.00 SBLB 280702Z AUTO 08028KT 1400 +RA FEW043 BKN053 ///// Q1016 W28/S5
CWVH 28 / CWVH 280800Z AUTO 03028KT ////SM ////// ///// A////
SPS KSPS Wichita Falls, US Sheppard Air Force Base-Wichita Falls Municipal Airport 27 38 4 21/18 29.95 KSPS 280752Z 18027G38KT 4SM +TSRA SCT047 BKN120 22/18 A2995 RMK AO2 PK WND 18038/0749 WSHFT 0715 LTG DSNT ALQDS RAB22 SLP127 P0007 T02170183

Station
 
Location
 
Name
 
Wind
Knots
Gust
Knots
Vis
SM
Temp/Dew
C
Baro
inHg
METAR
 
XJD OTBH Ar Rayyan, QA Al Udeid Air Base 27 34 40/4 29.65 OTBH 280755Z 34027G34KT 9999 CLR 41/05 A2965 Q1004 RMK AO2A PK WND 35035/10 SLP041 T04090046 FZRANO $
CWEF 27 6/5 CWEF 280800Z AUTO 16027KT 06/05 RMK AO1 PK WND 17033/0706 SLP348 T00610054 56017
NGO RJGG Tokoname, JP Chubu Centrair International Airport 27 3.73 23/22 29.32 RJGG 280800Z 15027KT 6000 -SHRA FEW010 BKN020 BKN030 23/22 Q0993 TEMPO 14034G46KT 1500 +SHRA BR FEW002 BKN004
GAS HKGA Garissa, KE Garissa Airport 26 29/20 30.03 HKGA 280700Z 18026KT 9999 BKN024 29/20 Q1017
AOK LGKP Karpathos Island, GR Karpathos Airport 26 23/17 29.88 LGKP 280750Z 28026KT CAVOK 23/17 Q1012
DHA OEDR SA King Abdulaziz Air Base 26 39/8 29.68 OEDR 280800Z 36026KT CAVOK 39/08 Q1005
EGOP 25 1.18 14/14 29.79 EGOP 280750Z AUTO 22025KT 1900 +DZ OVC003/// 14/14 Q1009
FBU ENFB Oslo, NO Oslo, Fornebu Airport 25 14/9 29.85 ENFB 280750Z AUTO 17025KT 9999 BKN015/// 14/09 Q1011 W///S3
KC83 25 33 14/9 29.95 KC83 280755Z AUTO 24025G33KT 10SM CLR 14/09 A2995 RMK AO2
CWZQ 25 35 10/5 CWZQ 280800Z AUTO 13025G35KT 10/05 RMK AO1 PK WND 12035/0752 SLP192 T01030052 56027
ACZ OIZB IR Zabol Airport 25 38/3 29.79 OIZB 280800Z 35025KT CAVOK 38/03 Q1009
OIM RJTO Izu Oshima, JP Oshima Airport 25 35 24/23 29.53 RJTO 280800Z 20025G35KT 9999 -SHRA FEW010 SCT013 BKN050 24/23 Q1000
NVT SBNF Navegantes, BR Ministro Victor Konder International Airport 25 15/10 29.91 SBNF 280800Z 29025KT 9999 FEW020 15/10 Q1013
MYW HTMT Mtwara, TZ Mtwara Airport 24 26/18 30.12 HTMT 280700Z 20024KT 9999 FEW020 26/18 Q1020 NOSIG
RJTK Kisarazu, JP JGSDF Kisarazu Airfield 24 34 25/22 29.53 RJTK 280742Z 20024G34KT 9999 -SHRA FEW008 BKN012 BKN040 25/22 Q1000 RMK 2ST008 6CU012 6SC040 A2954
ENSF 24 14/9 29.85 ENSF 280750Z AUTO 20024KT 9999 BKN017/// 14/09 Q1011 W///S3
CWBK 24 10/9 CWBK 280800Z AUTO 16024KT 11/10 RMK AO1 PK WND 16035/0733 SLP175 T01090098 56029
DOH OTHH Doha, QA Hamad International Airport 24 40/11 29.65 OTHH 280800Z 33024KT CAVOK 40/11 Q1004 NOSIG
HND RJTT Ota, Tokyo, JP Tokyo Haneda International Airport 24 4.97 23/22 29.50 RJTT 280800Z 18024KT 8000 -SHRA FEW004 BKN010 BKN020 23/22 Q0999 TEMPO 19028G38KT 3000 SHRA BR FEW004 BKN008
GOH BGGH Nuuk, GL Godthaab / Nuuk Airport 23 37 3/-2 29.70 BGGH 280750Z 16023G37KT 9999 -RASN SCT012 BKN031 03/M02 Q1006
BHB KBHB Bar Harbor, US Hancock County-Bar Harbor Airport 23 28 4 14/14 29.73 KBHB 280756Z AUTO 16023G28KT 4SM -RA BR BKN004 OVC009 14/14 A2973 RMK AO2 PK WND 17033/0718 RAB22 SLP068 P0019 T01440144
KMWN 23 32 0 9/9 KMWN 280758Z 23023G32KT 0SM FG VV000 09/09 RMK SHRAE15
CWBV 23 9/8 CWBV 280800Z AUTO 16023KT 09/09 RMK AO1 PK WND 16027/0728 SLP185 T00930086 56022
OGN ROYN JP Yonaguni Airport 23 4.97 26/23 29.62 ROYN 280800Z AUTO 02023KT 8000 SCT014 OVC020 26/23 Q1003
CEK USCC Chelyabinsk, RU Chelyabinsk Balandino Airport 23 35 20/2 29.94 USCC 280800Z 26012G18MPS CAVOK 20/02 Q1014 R27/000060 NOSIG RMK QFE740
SVX USSS Yekaterinburg, RU Koltsovo Airport 23 19/4 29.88 USSS 280800Z 28012MPS 250V320 CAVOK 19/04 Q1012 R26R/010060 R26L/010060 NOSIG RMK QFE738/0984
CWHO 22 9/3 CWHO 280800Z AUTO 00022KT 10/03 RMK AO1 SLP063 T00970033 56014
INZ DAUI In Salah, DZ In Salah Airport 22 2.49 / 29.88 DAUI 280800Z 07022KT 4000 DRSA NSC 34/// Q1012
IAM DAUZ Aménas, DZ In Aménas Airport 22 1.24 28/1 30.06 DAUZ 280800Z 10022KT 2000 DRSA NSC 28/01 Q1018
ZSE FMEP St Pierre, RE Pierrefonds Airport 22 26/22 30.06 FMEP 280800Z AUTO 13022KT 9999 FEW014 26/22 Q1018 TEMPO 14025G35KT 4000 SHRA FEW020TCU BKN030
DMM OEDF Ad Dammam, SA King Fahd International Airport 22 32 3.73 40/4 29.70 OEDF 280800Z 35022G32KT 6000 NSC 40/04 Q1006 TEMPO 5000
KHI OPKC Karachi, PK Jinnah International Airport 22 2.49 36/23 29.53 OPKC 280800Z 28022KT 4000 BLDU NSC 36/23 Q1000 TEMPO 26027KT
HTI YBHM Hamilton Island, AU Hamilton Island Airport 22 22/20 30.12 YBHM 280800Z AUTO 15022KT 9999 // BKN019 BKN024 22/20 Q1020
TRE EGPU Balemartine, GB Tiree Airport 21 11/10 29.65 EGPU 280750Z 15021KT 9999 -RA SCT010 BKN018 11/10 Q1004
ENGC 21 12/8 29.88 ENGC 280750Z 17021KT 9999 SCT015TCU SCT030 12/08 Q1012 W10/S3
YUX CYUX Hall Beach, CA Hall Beach Airport 21 9 -3/-5 29.79 CYUX 280800Z AUTO 33021KT 9SM SCT014 OVC020 M03/M05 A2979 RMK SLP089
RUN FMEE St Denis, RE Roland Garros Airport 21 28/20 30.00 FMEE 280800Z AUTO 12021KT CAVOK 28/20 Q1016 BECMG 14020G30KT
VXE GVSV São Pedro, CV São Pedro Airport 21 23/19 29.97 GVSV 280800Z 06021KT 9999 FEW016 SCT200 23/19 Q1015 NOSIG
MAH LEMH Menorca Island, ES Menorca Airport 21 20/14 30.09 LEMH 280800Z 03021KT CAVOK 20/14 Q1019
KOV UACK Kokshetau, KZ Kokshetau Airport 21 13/2 29.94 UACK 280800Z 26011MPS CAVOK 13/02 Q1014 NOSIG RMK QFE736/0982
KSN UAUU Kostanay, KZ Kostanay West Airport 21 19/5 30.06 UAUU 280800Z 26011MPS CAVOK 19/05 Q1018 TEMPO 26012G17MPS RMK QFE748/0998
TJM USTR Tyumen, RU Roshchino International Airport 21 31 18/0 29.68 USTR 280800Z 31011G16MPS 9999 FEW066CB 18/00 Q1005 R30/190063 R21/190063 TEMPO 32020MPS 2100 -TSRA
CXTN 20 5/0 CXTN 280700Z AUTO 14020KT 05/M00 RMK AO1 SOG 06 8003 PK WND 13025/0601 SLP178 T00521003
TBO HTTB Tabora, TZ Tabora Airport 20 23/16 30.24 HTTB 280700Z 10020KT CAVOK 23/16 Q1024 NOSIG
JGA VAJM Jamnagar, IN Jamnagar Airport 20 3.73 35/28 29.53 VAJM 280700Z 27020KT 6000 FEW015 35/28 Q1000 TEMPO 27025G35KT